Time;durP1;ratioP1;P1;durP2;ratioP2;P2;SDS_P1;SDS_P2;PMS_P1;PMS_P2;Temp;Humidity;BMP_temperature;BMP_pressure;BME280_temperature;BME280_humidity;BME280_pressure;Samples;Min_cycle;Max_cycle;Signal;HPM_P1;HPM_P2
2023/03/14 00:00:31;;;;;;;1.60;1.00;;;;;;;11.79;76.87;98341.03;4948892;28;20212;-82
2023/03/14 00:02:59;;;;;;;1.93;0.80;;;;;;;11.80;77.19;98329.34;4950550;28;20241;-82
2023/03/14 00:05:26;;;;;;;3.53;1.10;;;;;;;11.81;77.59;98323.88;4954550;28;20210;-81
2023/03/14 00:07:52;;;;;;;2.33;1.00;;;;;;;11.85;78.20;98308.34;4954333;28;20240;-81
2023/03/14 00:10:19;;;;;;;2.53;0.87;;;;;;;11.83;78.43;98302.34;4958539;28;20221;-82
2023/03/14 00:12:45;;;;;;;1.93;1.30;;;;;;;11.83;78.89;98292.50;4958435;28;20213;-82
2023/03/14 00:15:13;;;;;;;1.57;0.93;;;;;;;11.81;79.33;98291.03;4943074;28;20219;-82
2023/03/14 00:17:40;;;;;;;1.93;0.90;;;;;;;11.79;79.57;98291.19;4948537;28;20225;-82
2023/03/14 00:20:10;;;;;;;2.37;1.30;;;;;;;11.79;80.10;98301.84;4958197;28;20213;-82
2023/03/14 00:22:37;;;;;;;2.13;1.07;;;;;;;11.79;80.17;98293.84;4951483;28;20662;-82
2023/03/14 00:25:06;;;;;;;2.10;0.90;;;;;;;11.75;80.54;98281.81;4956956;28;20200;-81
2023/03/14 00:27:33;;;;;;;2.33;0.97;;;;;;;11.75;80.84;98275.63;4952437;28;20323;-82
2023/03/14 00:29:59;;;;;;;3.77;1.20;;;;;;;11.74;81.34;98293.47;4953705;28;20610;-82
2023/03/14 00:32:26;;;;;;;1.90;1.10;;;;;;;11.73;81.37;98309.63;4955731;28;20696;-82
2023/03/14 00:34:53;;;;;;;1.93;1.10;;;;;;;11.70;81.36;98300.09;4956173;28;20210;-82
2023/03/14 00:37:21;;;;;;;1.77;1.10;;;;;;;11.68;81.38;98280.78;4953098;28;20223;-81
2023/03/14 00:39:47;;;;;;;2.27;1.00;;;;;;;11.68;81.57;98293.25;4954432;28;20213;-82
2023/03/14 00:42:13;;;;;;;3.33;0.90;;;;;;;11.66;81.40;98316.59;4953607;28;20207;-82
2023/03/14 00:44:40;;;;;;;2.90;0.70;;;;;;;11.70;81.40;98307.28;4945870;28;20214;-82
2023/03/14 00:47:06;;;;;;;2.47;1.00;;;;;;;11.75;80.61;98319.13;4953400;28;20209;-81
2023/03/14 00:49:33;;;;;;;3.80;0.90;;;;;;;11.72;80.39;98327.44;4951383;29;20221;-81
2023/03/14 00:51:59;;;;;;;2.37;1.10;;;;;;;11.71;80.12;98335.59;4953968;28;20207;-81
2023/03/14 00:54:27;;;;;;;1.23;0.83;;;;;;;11.69;80.12;98317.09;4950259;28;20581;-82
2023/03/14 00:56:54;;;;;;;2.30;1.43;;;;;;;11.67;79.79;98308.44;4952679;28;20216;-82
2023/03/14 00:59:20;;;;;;;4.70;1.10;;;;;;;11.65;79.43;98306.91;4953136;28;20345;-82
2023/03/14 01:01:47;;;;;;;2.20;0.80;;;;;;;11.68;79.18;98296.75;4950295;28;20210;-81
2023/03/14 01:04:14;;;;;;;2.77;1.10;;;;;;;11.68;78.84;98296.75;4953801;29;20595;-81
2023/03/14 01:06:40;;;;;;;2.63;0.80;;;;;;;11.69;78.52;98306.44;4957190;28;20214;-81
2023/03/14 01:09:07;;;;;;;3.17;1.20;;;;;;;11.72;78.42;98290.13;4959281;28;20239;-81
2023/03/14 01:11:35;;;;;;;3.23;0.93;;;;;;;11.71;78.24;98285.78;4959480;28;20218;-82
2023/03/14 01:14:03;;;;;;;2.60;0.80;;;;;;;11.73;77.90;98285.63;4961423;28;20669;-82
2023/03/14 01:16:32;;;;;;;1.27;0.80;;;;;;;11.77;77.65;98279.00;4957744;28;20230;-82
2023/03/14 01:18:58;;;;;;;2.37;0.80;;;;;;;11.76;77.48;98262.19;4954353;28;20227;-82
2023/03/14 01:21:27;;;;;;;2.40;1.00;;;;;;;11.74;77.33;98280.13;4956574;28;21074;-82
2023/03/14 01:23:57;;;;;;;4.07;1.10;;;;;;;11.77;77.20;98282.50;4960459;28;20306;-82
2023/03/14 01:26:26;;;;;;;2.77;0.73;;;;;;;11.76;77.26;98286.19;4959110;28;20210;-82
2023/03/14 01:28:56;;;;;;;2.97;0.93;;;;;;;11.76;77.14;98254.19;4954360;29;20238;-82
2023/03/14 01:31:23;;;;;;;3.00;1.00;;;;;;;11.76;77.16;98254.19;4948758;28;20207;-82
2023/03/14 01:33:50;;;;;;;2.43;1.00;;;;;;;11.77;76.79;98255.00;4958768;28;20227;-81
2023/03/14 01:36:17;;;;;;;1.40;0.90;;;;;;;11.74;76.62;98269.47;4958596;28;20584;-82
2023/03/14 01:38:44;;;;;;;2.83;1.20;;;;;;;11.70;76.99;98260.13;4953844;28;20240;-82
2023/03/14 01:41:14;;;;;;;2.17;1.07;;;;;;;11.69;76.88;98270.94;4956345;28;20227;-82
2023/03/14 01:43:41;;;;;;;2.47;0.90;;;;;;;11.64;76.87;98281.28;4955500;28;20208;-83
2023/03/14 01:46:20;;;;;;;1.47;0.90;;;;;;;11.65;76.73;98280.25;4957913;28;20222;-82
2023/03/14 01:48:52;;;;;;;1.73;0.87;;;;;;;11.61;76.67;98274.44;4953952;28;20232;-81
2023/03/14 01:51:22;;;;;;;1.23;0.70;;;;;;;11.63;76.68;98271.59;4954691;28;20211;-83
2023/03/14 01:53:51;;;;;;;2.37;1.00;;;;;;;11.59;76.47;98244.44;4957061;28;20219;-81
2023/03/14 01:56:19;;;;;;;2.30;0.93;;;;;;;11.65;76.37;98241.09;4959094;28;20208;-81
2023/03/14 01:58:49;;;;;;;2.30;1.20;;;;;;;11.65;75.91;98246.44;4962433;28;20599;-81
2023/03/14 02:01:20;;;;;;;1.63;0.70;;;;;;;11.61;75.95;98225.59;4957131;28;20206;-81
2023/03/14 02:03:51;;;;;;;1.67;0.80;;;;;;;11.66;75.62;98229.44;4948600;29;20216;-81
2023/03/14 02:06:22;;;;;;;1.93;0.80;;;;;;;11.61;75.65;98223.78;4952922;29;20216;-81
2023/03/14 02:08:49;;;;;;;2.23;0.80;;;;;;;11.62;75.54;98220.13;4948897;29;20242;-82
2023/03/14 02:11:15;;;;;;;1.57;0.80;;;;;;;11.60;75.41;98218.59;4956899;28;20225;-82
2023/03/14 02:13:43;;;;;;;3.27;0.90;;;;;;;11.60;75.29;98224.78;4953480;29;20207;-81
2023/03/14 02:16:09;;;;;;;5.43;1.40;;;;;;;11.59;75.14;98238.25;4943349;28;20215;-82
2023/03/14 02:18:38;;;;;;;2.27;0.80;;;;;;;11.59;74.83;98223.09;4956449;28;20229;-80
2023/03/14 02:21:11;;;;;;;3.83;1.43;;;;;;;11.59;74.58;98238.25;4962243;28;20225;-81
2023/03/14 02:23:48;;;;;;;4.13;1.07;;;;;;;11.55;74.67;98243.06;4942828;29;20211;-80
2023/03/14 02:26:20;;;;;;;2.23;0.80;;;;;;;11.51;74.97;98244.38;4944440;29;20211;-82
2023/03/14 02:28:48;;;;;;;2.23;0.60;;;;;;;11.47;74.98;98245.69;4940341;29;20593;-82
2023/03/14 02:31:15;;;;;;;1.97;0.77;;;;;;;11.50;74.61;98245.38;4937573;29;20216;-80
2023/03/14 02:33:42;;;;;;;2.60;0.80;;;;;;;11.47;74.58;98240.38;4944169;29;20209;-81
2023/03/14 02:36:13;;;;;;;2.90;0.80;;;;;;;11.52;74.36;98235.41;4937410;29;20565;-81
2023/03/14 02:38:47;;;;;;;2.03;0.93;;;;;;;11.49;74.18;98238.38;4950391;29;20588;-82
2023/03/14 02:41:13;;;;;;;1.60;0.83;;;;;;;11.41;74.42;98231.22;4945538;29;20215;-81
2023/03/14 02:43:40;;;;;;;2.37;0.80;;;;;;;11.40;74.18;98220.72;4946717;29;20298;-80
2023/03/14 02:46:11;;;;;;;2.17;0.90;;;;;;;11.39;74.51;98227.03;4956422;28;20209;-80
2023/03/14 02:48:42;;;;;;;2.50;1.00;;;;;;;11.36;74.36;98222.84;4953417;28;20241;-81
2023/03/14 02:51:08;;;;;;;1.73;0.80;;;;;;;11.33;74.43;98217.84;4945056;29;20197;-80
2023/03/14 02:53:37;;;;;;;2.17;0.83;;;;;;;11.31;74.38;98208.34;4943956;29;20203;-82
2023/03/14 02:56:05;;;;;;;1.90;0.97;;;;;;;11.27;74.23;98205.19;4941896;29;20814;-82
2023/03/14 02:58:32;;;;;;;2.47;0.63;;;;;;;11.27;74.22;98197.19;4945987;29;20735;-82
2023/03/14 03:00:59;;;;;;;2.93;0.90;;;;;;;11.26;74.16;98205.34;4950020;29;20207;-81
2023/03/14 03:03:26;;;;;;;3.57;0.90;;;;;;;11.27;74.31;98199.84;4949293;29;20214;-81
2023/03/14 03:05:55;;;;;;;3.13;1.00;;;;;;;11.28;74.10;98193.53;4955174;29;20583;-81
2023/03/14 03:08:24;;;;;;;0.80;0.60;;;;;;;11.27;73.92;98201.69;4947449;29;20683;-82
2023/03/14 03:10:51;;;;;;;2.77;1.30;;;;;;;11.29;73.66;98194.34;4967931;28;20229;-81
2023/03/14 03:13:17;;;;;;;4.90;0.80;;;;;;;11.30;73.69;98177.34;4952685;29;20708;-81
2023/03/14 03:15:44;;;;;;;2.80;0.70;;;;;;;11.32;73.49;98183.34;4947228;29;20204;-82
2023/03/14 03:18:11;;;;;;;1.77;0.60;;;;;;;11.33;73.38;98182.38;4950667;29;20221;-81
2023/03/14 03:20:39;;;;;;;2.47;0.77;;;;;;;11.34;72.99;98173.38;4934930;29;20688;-81
2023/03/14 03:23:06;;;;;;;3.27;0.93;;;;;;;11.33;72.84;98169.03;4934692;29;20207;-81
2023/03/14 03:25:33;;;;;;;2.53;0.70;;;;;;;11.30;72.86;98182.69;4943666;29;20198;-83
2023/03/14 03:28:01;;;;;;;2.30;0.80;;;;;;;11.28;72.97;98182.88;4944317;28;20225;-82
2023/03/14 03:30:27;;;;;;;2.17;0.80;;;;;;;11.28;73.48;98168.72;4950728;29;20200;-81
2023/03/14 03:32:54;;;;;;;2.47;0.70;;;;;;;11.32;73.44;98178.03;4949743;29;20208;-80
2023/03/14 03:35:20;;;;;;;2.50;0.80;;;;;;;11.30;73.72;98169.34;4949795;29;20205;-80
2023/03/14 03:37:48;;;;;;;1.97;0.70;;;;;;;11.26;73.91;98168.03;4948159;29;20229;-80
2023/03/14 03:40:15;;;;;;;1.70;0.57;;;;;;;11.23;74.29;98163.88;4950563;29;20223;-82
2023/03/14 03:42:41;;;;;;;1.67;0.70;;;;;;;11.22;74.48;98162.19;4948396;29;20209;-81
2023/03/14 03:45:08;;;;;;;1.10;0.60;;;;;;;11.23;74.71;98173.69;4950872;29;20203;-80
2023/03/14 03:47:35;;;;;;;1.50;0.70;;;;;;;11.21;74.84;98171.19;4946126;28;20226;-80
2023/03/14 03:50:02;;;;;;;4.00;0.80;;;;;;;11.18;75.02;98184.81;4948693;28;20225;-81
2023/03/14 03:52:28;;;;;;;1.63;0.67;;;;;;;11.17;75.09;98191.13;4944225;29;20321;-80
2023/03/14 03:54:56;;;;;;;2.37;0.80;;;;;;;11.18;75.23;98183.97;4934448;29;20212;-81
2023/03/14 03:57:23;;;;;;;3.53;0.70;;;;;;;11.15;75.40;98193.13;4944786;29;20230;-81
2023/03/14 03:59:49;;;;;;;2.53;0.80;;;;;;;11.14;75.85;98199.44;4954156;28;20206;-81
2023/03/14 04:02:16;;;;;;;3.03;0.70;;;;;;;11.13;76.51;98203.94;4952497;28;20205;-83
2023/03/14 04:04:42;;;;;;;1.53;0.77;;;;;;;11.08;76.92;98219.59;4950518;28;20212;-83
2023/03/14 04:07:09;;;;;;;4.40;0.70;;;;;;;11.05;77.61;98235.03;4950174;28;20300;-82
2023/03/14 04:09:38;;;;;;;1.93;0.60;;;;;;;11.00;78.00;98248.00;4959238;28;20591;-81
2023/03/14 04:12:06;;;;;;;0.87;0.30;;;;;;;10.90;77.09;98258.78;4962599;28;20552;-83
2023/03/14 04:14:32;;;;;;;2.20;0.33;;;;;;;10.80;77.30;98242.06;4952339;28;20703;-83
2023/03/14 04:16:59;;;;;;;1.70;0.80;;;;;;;10.66;77.56;98240.81;4949984;28;20220;-80
2023/03/14 04:19:25;;;;;;;0.60;0.20;;;;;;;10.54;77.85;98231.41;4945026;28;20218;-80
2023/03/14 04:21:52;;;;;;;1.03;0.20;;;;;;;10.45;78.16;98219.03;4948121;29;20573;-80
2023/03/14 04:24:18;;;;;;;1.53;0.30;;;;;;;10.40;78.33;98222.16;4954318;28;20208;-80
2023/03/14 04:26:45;;;;;;;0.17;0.17;;;;;;;10.33;78.34;98218.47;4954109;28;20209;-80
2023/03/14 04:29:12;;;;;;;0.60;0.20;;;;;;;10.24;78.65;98215.88;4954499;28;20228;-81
2023/03/14 04:31:39;;;;;;;0.60;0.20;;;;;;;10.17;79.17;98218.28;4945011;28;20778;-79
2023/03/14 04:34:05;;;;;;;0.77;0.10;;;;;;;10.14;79.43;98218.59;4951156;28;20669;-81
2023/03/14 04:36:32;;;;;;;0.90;0.20;;;;;;;10.02;79.62;98210.03;4949366;28;20205;-79
2023/03/14 04:38:58;;;;;;;0.20;0.20;;;;;;;9.98;79.50;98213.13;4955978;28;20227;-80
2023/03/14 04:41:25;;;;;;;0.20;0.10;;;;;;;9.95;79.59;98205.47;4957423;28;20208;-82
2023/03/14 04:43:51;;;;;;;0.90;0.30;;;;;;;9.93;79.59;98204.78;4954841;28;20580;-83
2023/03/14 04:46:19;;;;;;;0.60;0.20;;;;;;;9.90;79.93;98187.31;4954641;28;20208;-82
2023/03/14 04:48:46;;;;;;;0.80;0.30;;;;;;;9.87;80.16;98194.75;4954345;28;20722;-80
2023/03/14 04:51:12;;;;;;;1.30;0.43;;;;;;;9.89;79.92;98198.09;4950660;28;20585;-82
2023/03/14 04:53:38;;;;;;;1.90;0.30;;;;;;;9.88;80.42;98201.72;4951555;28;20695;-83
2023/03/14 04:56:06;;;;;;;0.77;0.40;;;;;;;9.85;80.61;98204.72;4941530;28;20206;-80
2023/03/14 04:58:32;;;;;;;1.47;0.50;;;;;;;9.81;80.34;98200.69;4952716;28;20612;-82
2023/03/14 05:01:03;;;;;;;1.30;0.40;;;;;;;9.79;81.12;98194.69;4952202;28;20594;-82
2023/03/14 05:03:31;;;;;;;1.63;0.40;;;;;;;9.79;81.07;98194.69;4956350;28;20198;-81
2023/03/14 05:05:58;;;;;;;0.93;0.40;;;;;;;9.77;81.15;98196.66;4946605;28;20208;-82
2023/03/14 05:08:25;;;;;;;0.73;0.60;;;;;;;9.77;80.96;98201.97;4956261;28;20227;-82
2023/03/14 05:10:54;;;;;;;2.23;0.60;;;;;;;9.79;81.21;98194.69;4953551;28;20580;-81
2023/03/14 05:13:21;;;;;;;5.23;0.63;;;;;;;9.78;81.68;98190.34;4957167;28;20676;-82
2023/03/14 05:15:47;;;;;;;1.33;0.67;;;;;;;9.75;82.57;98197.63;4959654;28;20220;-81
2023/03/14 05:18:14;;;;;;;2.57;0.77;;;;;;;9.76;82.53;98182.53;4955422;28;20225;-80
2023/03/14 05:20:42;;;;;;;2.63;0.87;;;;;;;9.73;82.71;98185.47;4958724;28;20590;-80
2023/03/14 05:23:09;;;;;;;2.37;0.50;;;;;;;9.71;82.61;98185.63;4949083;28;20275;-82
2023/03/14 05:25:36;;;;;;;2.17;0.60;;;;;;;9.74;82.76;98177.38;4952975;28;20209;-81
2023/03/14 05:28:02;;;;;;;3.20;0.80;;;;;;;9.71;82.68;98177.66;4948897;28;20227;-82
2023/03/14 05:30:30;;;;;;;2.90;1.33;;;;;;;9.73;82.80;98172.19;4956621;28;20318;-81
2023/03/14 05:32:57;;;;;;;3.93;0.80;;;;;;;9.69;82.77;98174.31;4948006;28;20758;-81
2023/03/14 05:35:23;;;;;;;3.87;0.60;;;;;;;9.68;82.61;98171.81;4951591;28;20204;-80
2023/03/14 05:37:51;;;;;;;1.33;0.47;;;;;;;9.62;82.87;98165.28;4950267;28;20727;-81
2023/03/14 05:40:18;;;;;;;2.40;0.60;;;;;;;9.60;82.45;98161.94;4945807;28;20206;-80
2023/03/14 05:42:44;;;;;;;1.37;0.50;;;;;;;9.60;82.66;98174.41;4945622;28;20247;-80
2023/03/14 05:45:12;;;;;;;3.03;0.60;;;;;;;9.59;83.32;98165.59;4948670;28;20296;-80
2023/03/14 05:47:38;;;;;;;3.03;0.90;;;;;;;9.54;82.97;98159.88;4946911;28;20225;-81
2023/03/14 05:50:05;;;;;;;4.00;0.73;;;;;;;9.54;83.17;98159.88;4944992;28;20229;-80
2023/03/14 05:52:32;;;;;;;1.07;0.40;;;;;;;9.53;83.70;98162.69;4952498;28;20220;-80
2023/03/14 05:55:00;;;;;;;2.73;0.43;;;;;;;9.51;83.17;98157.53;4945325;28;20560;-80
2023/03/14 05:57:26;;;;;;;1.33;0.40;;;;;;;9.49;83.93;98159.53;4948402;28;20233;-80
2023/03/14 05:59:53;;;;;;;1.60;0.60;;;;;;;9.50;83.63;98163.00;4941651;28;20216;-80
2023/03/14 06:02:19;;;;;;;2.73;0.93;;;;;;;9.46;83.65;98154.50;4952352;28;20205;-80
2023/03/14 06:04:46;;;;;;;2.00;0.80;;;;;;;9.45;83.67;98152.84;4942051;28;20206;-80
2023/03/14 06:07:12;;;;;;;1.80;0.40;;;;;;;9.44;84.41;98150.31;4957528;28;20671;-80
2023/03/14 06:09:39;;;;;;;1.07;0.40;;;;;;;9.43;84.37;98144.19;4949512;28;20229;-80
2023/03/14 06:12:07;;;;;;;3.60;1.30;;;;;;;9.41;84.58;98148.81;4946755;28;20246;-80
2023/03/14 06:14:34;;;;;;;1.77;0.70;;;;;;;9.41;84.55;98159.44;4941194;28;20209;-80
2023/03/14 06:17:00;;;;;;;1.17;0.40;;;;;;;9.43;84.23;98162.78;4945941;28;20213;-80
2023/03/14 06:19:27;;;;;;;2.70;0.77;;;;;;;9.43;84.07;98164.59;4954738;28;20208;-80
2023/03/14 06:21:53;;;;;;;2.10;0.60;;;;;;;9.42;84.10;98163.75;4950815;28;20216;-81
2023/03/14 06:24:20;;;;;;;2.03;0.57;;;;;;;9.43;84.76;98165.44;4944202;28;20232;-78
2023/03/14 06:26:46;;;;;;;1.97;0.50;;;;;;;9.46;84.63;98172.28;4948767;28;20563;-80
2023/03/14 06:29:14;;;;;;;2.80;0.83;;;;;;;9.48;84.26;98176.44;4951295;28;20240;-80
2023/03/14 06:31:41;;;;;;;2.57;0.60;;;;;;;9.48;84.06;98173.78;4945235;28;20206;-81
2023/03/14 06:34:07;;;;;;;4.10;0.60;;;;;;;9.48;84.46;98173.78;4955891;28;20870;-81
2023/03/14 06:36:34;;;;;;;1.47;0.47;;;;;;;9.49;83.92;98186.09;4957799;28;20706;-82
2023/03/14 06:39:00;;;;;;;1.77;0.50;;;;;;;9.53;83.85;98182.13;4956558;28;20228;-82
2023/03/14 06:41:26;;;;;;;2.73;0.40;;;;;;;9.53;83.90;98194.56;4948128;28;20202;-83
2023/03/14 06:43:53;;;;;;;3.50;0.87;;;;;;;9.51;84.09;98189.41;4946235;28;20205;-82
2023/03/14 06:46:21;;;;;;;2.50;0.70;;;;;;;9.54;84.10;98191.78;4949332;28;20209;-82
2023/03/14 06:48:50;;;;;;;3.43;0.50;;;;;;;9.57;84.71;98191.47;4957308;28;20232;-82
2023/03/14 06:51:17;;;;;;;1.70;0.50;;;;;;;9.60;83.99;98193.00;4942867;28;20205;-82
2023/03/14 06:53:43;;;;;;;1.30;0.40;;;;;;;9.62;84.02;98189.22;4939155;28;20216;-82
2023/03/14 06:56:13;;;;;;;4.17;0.53;;;;;;;9.63;84.18;98196.19;4949948;28;20296;-81
2023/03/14 06:58:39;;;;;;;2.43;0.30;;;;;;;9.64;84.31;98186.41;4953779;28;20228;-81
2023/03/14 07:01:06;;;;;;;1.40;0.40;;;;;;;9.62;84.62;98197.19;4944712;28;20212;-81
2023/03/14 07:03:34;;;;;;;0.87;0.40;;;;;;;9.63;85.16;98198.03;4954066;28;20201;-82
2023/03/14 07:06:01;;;;;;;2.47;0.30;;;;;;;9.66;85.22;98187.94;4951113;28;20208;-81
2023/03/14 07:08:27;;;;;;;0.80;0.40;;;;;;;9.66;85.13;98198.56;4951607;28;20225;-82
2023/03/14 07:10:56;;;;;;;1.67;0.40;;;;;;;9.67;85.71;98192.22;4951976;28;20233;-81
2023/03/14 07:13:23;;;;;;;0.87;0.60;;;;;;;9.65;86.03;98191.56;4946135;28;20205;-80
2023/03/14 07:15:49;;;;;;;4.33;0.90;;;;;;;9.65;86.41;98199.53;4954664;28;20215;-81
2023/03/14 07:18:16;;;;;;;2.67;0.63;;;;;;;9.69;86.48;98192.91;4951289;28;20237;-81
2023/03/14 07:20:45;;;;;;;1.67;0.50;;;;;;;9.70;86.75;98193.75;4953354;28;20217;-82
2023/03/14 07:23:12;;;;;;;3.00;0.70;;;;;;;9.71;87.41;98198.91;4954184;28;20611;-82
2023/03/14 07:25:38;;;;;;;1.57;0.70;;;;;;;9.70;87.23;98191.94;4950228;28;20583;-82
2023/03/14 07:28:05;;;;;;;2.57;0.70;;;;;;;9.71;87.37;98188.28;4945614;28;20228;-82
2023/03/14 07:30:31;;;;;;;1.93;0.70;;;;;;;9.71;88.05;98184.78;4946299;28;20235;-81
2023/03/14 07:32:58;;;;;;;2.63;0.90;;;;;;;9.72;88.42;98181.16;4944968;28;20220;-81
2023/03/14 07:35:24;;;;;;;1.87;0.70;;;;;;;9.72;88.55;98176.66;4957260;28;20216;-81
2023/03/14 07:37:52;;;;;;;2.90;0.60;;;;;;;9.74;88.67;98168.56;4940572;28;20239;-80
2023/03/14 07:40:19;;;;;;;3.53;1.37;;;;;;;9.80;89.14;98161.81;4957108;28;20200;-81
2023/03/14 07:42:46;;;;;;;2.97;0.90;;;;;;;9.77;89.38;98172.72;4940446;28;20224;-80
2023/03/14 07:45:13;;;;;;;3.00;0.60;;;;;;;9.75;89.71;98180.84;4948546;28;20208;-81
2023/03/14 07:47:39;;;;;;;5.00;1.43;;;;;;;9.74;90.34;98172.03;4947847;28;20225;-81
2023/03/14 07:50:07;;;;;;;2.83;0.90;;;;;;;9.77;90.41;98162.09;4942116;28;20232;-80
2023/03/14 07:52:33;;;;;;;2.87;1.00;;;;;;;9.77;90.20;98167.41;4938843;28;20582;-81
2023/03/14 07:55:01;;;;;;;2.07;0.97;;;;;;;9.78;90.71;98169.91;4945217;28;20220;-80
2023/03/14 07:57:28;;;;;;;3.47;1.50;;;;;;;9.84;91.00;98163.16;4946427;28;20237;-81
2023/03/14 07:59:54;;;;;;;4.57;1.23;;;;;;;9.88;91.16;98148.56;4940772;28;20205;-81
2023/03/14 08:02:23;;;;;;;2.73;0.93;;;;;;;9.92;91.41;98156.09;4945846;28;20213;-81
2023/03/14 08:04:50;;;;;;;2.93;1.03;;;;;;;9.94;91.46;98150.63;4943703;28;20215;-81
2023/03/14 08:07:17;;;;;;;4.30;1.17;;;;;;;9.95;91.38;98147.81;4939812;28;20669;-80
2023/03/14 08:09:44;;;;;;;2.37;0.80;;;;;;;9.99;91.73;98140.38;4944866;28;20233;-80
2023/03/14 08:12:12;;;;;;;3.60;1.50;;;;;;;10.01;91.25;98143.72;4939640;28;20201;-80
2023/03/14 08:14:39;;;;;;;5.07;0.97;;;;;;;10.06;91.39;98154.69;4945922;28;20671;-80
2023/03/14 08:17:07;;;;;;;3.27;1.00;;;;;;;10.09;90.98;98162.38;4944677;28;20201;-83
2023/03/14 08:19:34;;;;;;;1.57;0.63;;;;;;;10.15;90.70;98159.09;4945027;28;20218;-82
2023/03/14 08:22:01;;;;;;;1.43;0.40;;;;;;;10.22;89.81;98168.13;4947748;28;20699;-82
2023/03/14 08:24:27;;;;;;;2.43;0.70;;;;;;;10.25;89.84;98165.19;4940800;28;20213;-83
2023/03/14 08:26:54;;;;;;;4.57;0.60;;;;;;;10.25;89.71;98167.00;4945655;28;20218;-83
2023/03/14 08:29:22;;;;;;;2.10;0.80;;;;;;;10.29;89.64;98182.50;4945082;28;20229;-82
2023/03/14 08:31:48;;;;;;;4.67;0.73;;;;;;;10.32;89.00;98176.03;4943260;28;20212;-82
2023/03/14 08:34:15;;;;;;;2.57;0.80;;;;;;;10.34;88.95;98198.84;4952953;28;20626;-82
2023/03/14 08:36:41;;;;;;;1.97;0.70;;;;;;;10.36;88.89;98186.22;4952957;29;20212;-82
2023/03/14 08:39:08;;;;;;;1.57;0.70;;;;;;;10.44;88.86;98196.06;4953969;29;20601;-83
2023/03/14 08:41:39;;;;;;;1.40;0.80;;;;;;;10.46;89.07;98199.41;4956782;29;20833;-83
2023/03/14 08:44:06;;;;;;;2.50;0.90;;;;;;;10.47;89.47;98190.44;4957665;28;20194;-83
2023/03/14 08:46:34;;;;;;;1.50;0.50;;;;;;;10.47;89.80;98190.44;4957335;29;20212;-84
2023/03/14 08:49:00;;;;;;;2.10;0.70;;;;;;;10.46;90.24;98185.28;4957049;29;20225;-83
2023/03/14 08:51:27;;;;;;;1.27;0.60;;;;;;;10.44;90.68;98180.94;4956580;29;20233;-84
2023/03/14 08:53:53;;;;;;;3.77;0.73;;;;;;;10.44;91.62;98183.59;4956994;29;20220;-84
2023/03/14 08:56:20;;;;;;;2.80;1.20;;;;;;;10.46;91.67;98182.59;4957248;29;20209;-84
2023/03/14 08:58:46;;;;;;;1.30;0.60;;;;;;;10.44;92.08;98183.59;4956770;29;20233;-84
2023/03/14 09:01:13;;;;;;;2.93;0.57;;;;;;;10.46;92.47;98182.59;4956430;29;20219;-83
2023/03/14 09:03:40;;;;;;;2.07;0.90;;;;;;;10.48;92.67;98191.28;4956730;29;20340;-84
2023/03/14 09:06:09;;;;;;;3.77;0.70;;;;;;;10.48;92.73;98180.63;4957569;29;20208;-82
2023/03/14 09:08:37;;;;;;;2.70;0.67;;;;;;;10.49;92.76;98183.13;4956467;29;20236;-84
2023/03/14 09:11:03;;;;;;;1.90;0.53;;;;;;;10.48;92.96;98184.13;4953470;29;20240;-81
2023/03/14 09:13:30;;;;;;;2.33;0.70;;;;;;;10.53;92.59;98179.19;4953863;29;20217;-84
2023/03/14 09:15:58;;;;;;;2.63;0.80;;;;;;;10.55;92.73;98169.22;4953274;29;20701;-85
2023/03/14 09:18:24;;;;;;;3.63;0.90;;;;;;;10.58;92.60;98173.38;4954157;29;20263;-84
2023/03/14 09:20:52;;;;;;;1.70;0.53;;;;;;;10.60;91.99;98174.03;4954475;29;20253;-83
2023/03/14 09:23:18;;;;;;;0.97;0.50;;;;;;;10.63;91.54;98171.06;4954474;29;20671;-83
2023/03/14 09:25:45;;;;;;;0.73;0.50;;;;;;;10.71;91.35;98177.28;4954013;28;20214;-84
2023/03/14 09:28:11;;;;;;;1.70;0.40;;;;;;;10.79;90.86;98163.16;4957058;29;20240;-83
2023/03/14 09:30:38;;;;;;;1.23;0.50;;;;;;;10.86;90.55;98169.53;4956920;29;20264;-84
2023/03/14 09:33:04;;;;;;;0.90;0.40;;;;;;;10.92;90.28;98163.59;4957138;29;20216;-82
2023/03/14 09:35:31;;;;;;;0.77;0.40;;;;;;;10.98;89.43;98170.91;4956999;29;20580;-83
2023/03/14 09:37:59;;;;;;;2.00;0.40;;;;;;;11.04;88.96;98178.28;4956967;29;20230;-84
2023/03/14 09:40:32;;;;;;;0.93;0.17;;;;;;;11.06;87.49;98175.47;4955397;29;20215;-84
2023/03/14 09:42:59;;;;;;;0.60;0.20;;;;;;;11.16;87.93;98169.97;4955266;29;20208;-83
2023/03/14 09:45:27;;;;;;;1.43;0.47;;;;;;;11.32;86.62;98162.03;4955275;29;20283;-84
2023/03/14 09:47:56;;;;;;;1.70;0.40;;;;;;;11.40;86.54;98170.06;4955308;29;20240;-82
2023/03/14 09:50:24;;;;;;;1.30;0.30;;;;;;;11.47;85.40;98173.75;4955161;29;20329;-82
2023/03/14 09:52:56;;;;;;;1.07;0.30;;;;;;;11.49;84.63;98167.25;4948956;29;20216;-82
2023/03/14 09:55:24;;;;;;;0.93;0.30;;;;;;;11.54;84.22;98174.75;4955309;29;20198;-83
2023/03/14 09:57:55;;;;;;;0.30;0.20;;;;;;;11.57;84.07;98173.59;4955067;28;20233;-85
2023/03/14 10:00:25;;;;;;;0.60;0.20;;;;;;;11.58;83.67;98176.13;4951728;29;20205;-83
2023/03/14 10:02:54;;;;;;;1.00;0.40;;;;;;;11.60;83.67;98182.13;4952206;29;20208;-82
2023/03/14 10:05:23;;;;;;;1.70;0.40;;;;;;;11.63;84.26;98187.13;4948837;29;20231;-82
2023/03/14 10:07:50;;;;;;;1.40;0.30;;;;;;;11.63;83.71;98183.63;4938994;29;20255;-83
2023/03/14 10:10:20;;;;;;;1.00;0.30;;;;;;;11.60;84.31;98181.28;4940594;29;20225;-83
2023/03/14 10:12:56;;;;;;;0.80;0.30;;;;;;;11.62;84.40;98184.63;4956965;29;20203;-83
2023/03/14 10:15:26;;;;;;;0.30;0.20;;;;;;;11.68;84.87;98179.44;4944506;28;20202;-84
2023/03/14 10:17:52;;;;;;;1.60;0.40;;;;;;;11.76;85.11;98182.19;4950138;28;20258;-82
2023/03/14 10:20:34;;;;;;;0.97;0.30;;;;;;;11.83;84.58;98187.66;4955992;29;20702;-85
2023/03/14 10:23:03;;;;;;;0.40;0.30;;;;;;;11.86;83.45;98182.00;4938704;29;20210;-82
2023/03/14 10:25:31;;;;;;;1.30;0.23;;;;;;;11.89;82.54;98197.69;4935671;29;20236;-82
2023/03/14 10:27:59;;;;;;;2.00;0.30;;;;;;;11.92;82.84;98188.53;4944415;29;20221;-83
2023/03/14 10:30:43;;;;;;;1.37;0.20;;;;;;;11.92;82.11;98192.03;4946597;29;20232;-83
2023/03/14 10:33:12;;;;;;;0.50;0.20;;;;;;;11.96;82.15;98193.38;4943314;29;20203;-84
2023/03/14 10:35:40;;;;;;;1.07;0.30;;;;;;;11.93;81.68;98191.03;4949566;29;20201;-82
2023/03/14 10:38:14;;;;;;;0.73;0.20;;;;;;;11.98;81.44;98182.53;4951648;28;20603;-83
2023/03/14 10:40:42;;;;;;;1.13;0.30;;;;;;;11.97;81.35;98178.19;4935235;29;20190;-83
2023/03/14 10:43:16;;;;;;;0.60;0.20;;;;;;;11.99;81.11;98179.72;4953884;29;20209;-82
2023/03/14 10:45:45;;;;;;;0.40;0.40;;;;;;;11.98;80.89;98182.53;4953112;29;20658;-83
2023/03/14 10:48:31;;;;;;;1.80;0.63;;;;;;;12.01;81.13;98169.69;4936065;29;20233;-82
2023/03/14 10:51:02;;;;;;;0.63;0.40;;;;;;;12.04;80.72;98172.00;4943339;29;20212;-83
2023/03/14 10:53:34;;;;;;;0.87;0.30;;;;;;;12.09;80.77;98177.69;4948113;29;20193;-82
2023/03/14 10:56:04;;;;;;;0.97;0.63;;;;;;;12.13;80.52;98164.84;4943256;29;20197;-82
2023/03/14 10:58:38;;;;;;;1.03;0.13;;;;;;;12.19;79.89;98169.50;4945898;29;20252;-82
2023/03/14 11:01:18;;;;;;;0.20;0.20;;;;;;;12.18;79.32;98167.88;4936946;29;20218;-82
2023/03/14 11:03:53;;;;;;;0.50;0.27;;;;;;;12.20;78.46;98171.19;4946244;29;20206;-83
2023/03/14 11:06:29;;;;;;;0.13;0.13;;;;;;;12.21;77.92;98172.84;4944713;29;20238;-82
2023/03/14 11:09:05;;;;;;;0.30;0.20;;;;;;;12.21;77.94;98175.50;4949445;29;20232;-82
2023/03/14 11:11:32;;;;;;;0.20;0.20;;;;;;;12.21;78.14;98185.34;4953634;29;20223;-82
2023/03/14 11:14:13;;;;;;;0.40;0.30;;;;;;;12.20;78.25;98179.19;4942349;29;20833;-82
2023/03/14 11:16:51;;;;;;;0.30;0.20;;;;;;;12.24;78.64;98175.19;4942270;29;20197;-82
2023/03/14 11:19:34;;;;;;;0.20;0.20;;;;;;;12.30;79.04;98171.84;4945689;29;20233;-82
2023/03/14 11:22:07;;;;;;;0.30;0.30;;;;;;;12.34;79.12;98181.19;4950748;28;20205;-82
2023/03/14 11:25:00;;;;;;;1.37;0.40;;;;;;;12.41;79.07;98184.00;4947578;29;20223;-81
2023/03/14 11:27:35;;;;;;;0.30;0.20;;;;;;;12.52;78.85;98179.16;4939993;29;20231;-85
2023/03/14 11:30:14;;;;;;;0.43;0.20;;;;;;;12.59;78.87;98178.47;4945123;29;20208;-83
2023/03/14 11:32:45;;;;;;;0.20;0.20;;;;;;;12.66;78.74;98180.31;4937263;29;20217;-85
2023/03/14 11:35:23;;;;;;;0.60;0.30;;;;;;;12.72;78.18;98173.47;4942513;29;20210;-82
2023/03/14 11:37:55;;;;;;;0.53;0.30;;;;;;;12.76;78.32;98178.25;4957955;28;20236;-84
2023/03/14 11:40:24;;;;;;;0.27;0.20;;;;;;;12.80;77.93;98181.44;4954280;28;20261;-85